Time;durP1;ratioP1;P1;durP2;ratioP2;P2;SDS_P1;SDS_P2;PMS_P1;PMS_P2;Temp;Humidity;BMP_temperature;BMP_pressure;BME280_temperature;BME280_humidity;BME280_pressure;Samples;Min_cycle;Max_cycle;Signal;HPM_P1;HPM_P2
2022/11/08 00:02:15;;;;;;;9.40;2.10;;;12.90;99.90;;;;;;4865919;29;20721;-82
2022/11/08 00:04:42;;;;;;;6.30;1.38;;;12.80;99.90;;;;;;4844689;29;20076;-80
2022/11/08 00:15:37;;;;;;;12.63;2.35;;;12.90;99.90;;;;;;4876466;29;20049;-80
2022/11/08 00:18:06;;;;;;;13.50;2.38;;;12.90;99.90;;;;;;4847073;29;20045;-80
2022/11/08 00:20:32;;;;;;;12.73;2.38;;;12.90;99.90;;;;;;4861523;29;20049;-82
2022/11/08 00:22:57;;;;;;;9.13;1.85;;;13.00;99.90;;;;;;4845780;29;20303;-81
2022/11/08 00:25:23;;;;;;;7.97;2.13;;;13.00;99.90;;;;;;4847460;29;20188;-80
2022/11/08 00:27:51;;;;;;;8.23;1.75;;;12.90;99.90;;;;;;4847328;29;20045;-80
2022/11/08 00:30:16;;;;;;;13.02;3.22;;;13.00;99.90;;;;;;4845703;29;20124;-81
2022/11/08 00:32:42;;;;;;;10.88;2.42;;;12.90;99.90;;;;;;4847191;29;20105;-80
2022/11/08 00:35:08;;;;;;;12.18;2.00;;;12.90;99.90;;;;;;4848474;29;20037;-81
2022/11/08 00:37:33;;;;;;;10.85;1.98;;;12.90;99.90;;;;;;4858468;29;20117;-82
2022/11/08 00:39:59;;;;;;;11.93;2.25;;;12.90;99.90;;;;;;4862354;29;20488;-80
2022/11/08 00:42:25;;;;;;;12.75;2.75;;;13.00;99.90;;;;;;4851148;29;20037;-81
2022/11/08 00:44:50;;;;;;;8.75;1.88;;;13.00;99.90;;;;;;4841886;29;20042;-81
2022/11/08 00:47:16;;;;;;;9.30;2.50;;;12.90;99.90;;;;;;4847403;29;20069;-80
2022/11/08 00:49:41;;;;;;;6.85;1.88;;;13.20;99.90;;;;;;4861048;29;20037;-81
2022/11/08 00:52:07;;;;;;;9.23;1.90;;;12.90;99.90;;;;;;4862400;29;20040;-81
2022/11/08 00:54:32;;;;;;;12.38;1.80;;;12.90;99.90;;;;;;4848882;29;20078;-80
2022/11/08 00:56:58;;;;;;;6.63;2.25;;;12.80;99.90;;;;;;4858541;29;20182;-80
2022/11/08 00:59:23;;;;;;;12.85;3.13;;;12.90;99.90;;;;;;4861286;29;20048;-80
2022/11/08 01:01:49;;;;;;;7.45;2.22;;;12.80;99.90;;;;;;4862416;29;20069;-81
2022/11/08 01:04:23;;;;;;;12.70;2.25;;;12.70;99.90;;;;;;4862353;29;20097;-80
2022/11/08 01:06:49;;;;;;;8.27;1.90;;;12.70;99.90;;;;;;4857697;29;20055;-81
2022/11/08 01:09:27;;;;;;;10.98;2.13;;;12.70;99.90;;;;;;4858941;29;20041;-80
2022/11/08 01:11:52;;;;;;;11.68;2.35;;;12.60;99.90;;;;;;4859916;29;20044;-81
2022/11/08 01:14:18;;;;;;;9.73;1.70;;;12.60;99.90;;;;;;4844051;29;20420;-80
2022/11/08 01:16:44;;;;;;;10.80;2.28;;;12.60;99.90;;;;;;4856209;29;20776;-81
2022/11/08 01:19:09;;;;;;;9.55;2.10;;;12.60;99.90;;;;;;4846045;29;20051;-81
2022/11/08 01:21:35;;;;;;;9.85;2.38;;;12.50;99.90;;;;;;4845961;29;20547;-80
2022/11/08 01:24:01;;;;;;;10.70;2.47;;;12.60;99.90;;;;;;4858316;29;20115;-80
2022/11/08 01:26:28;;;;;;;15.20;2.17;;;12.50;99.90;;;;;;4840805;29;20055;-81
2022/11/08 01:28:55;;;;;;;8.85;1.63;;;12.50;99.90;;;;;;4848011;29;20496;-80
2022/11/08 01:31:23;;;;;;;14.90;4.15;;;12.50;99.90;;;;;;4860606;29;20052;-81
2022/11/08 01:33:49;;;;;;;15.98;2.75;;;12.40;99.90;;;;;;4871181;29;20181;-80
2022/11/08 01:36:16;;;;;;;8.77;1.95;;;12.40;99.90;;;;;;4858002;29;20496;-81
2022/11/08 01:38:43;;;;;;;11.57;2.08;;;12.40;99.90;;;;;;4847390;29;20049;-82
2022/11/08 01:41:12;;;;;;;9.27;1.98;;;12.40;99.90;;;;;;4856909;29;20041;-81
2022/11/08 01:43:42;;;;;;;13.65;2.25;;;12.50;99.90;;;;;;4862121;29;20045;-80
2022/11/08 01:46:16;;;;;;;9.73;1.90;;;12.50;99.90;;;;;;4871528;29;20041;-80
2022/11/08 01:49:13;;;;;;;8.73;1.55;;;12.40;99.90;;;;;;4840932;29;20069;-81
2022/11/08 01:51:44;;;;;;;9.18;2.05;;;12.40;99.90;;;;;;4835672;29;20200;-81
2022/11/08 01:54:14;;;;;;;11.13;2.22;;;12.40;99.90;;;;;;4843234;29;20053;-81
2022/11/08 01:56:41;;;;;;;12.05;1.67;;;12.30;99.90;;;;;;4846858;29;20124;-80
2022/11/08 01:59:09;;;;;;;8.75;2.35;;;12.20;99.90;;;;;;4843991;29;20132;-80
2022/11/08 02:01:35;;;;;;;14.57;2.50;;;12.20;99.90;;;;;;4859613;29;20045;-82
2022/11/08 02:04:06;;;;;;;7.85;1.98;;;12.20;99.90;;;;;;4856098;29;20128;-82
2022/11/08 02:06:36;;;;;;;14.27;2.17;;;12.20;99.90;;;;;;4857926;29;20105;-82
2022/11/08 02:09:07;;;;;;;10.77;2.38;;;12.30;99.90;;;;;;4858086;29;20513;-80
2022/11/08 02:11:33;;;;;;;10.32;1.88;;;12.20;99.90;;;;;;4847181;29;20080;-80
2022/11/08 02:13:59;;;;;;;9.95;2.53;;;12.10;99.90;;;;;;4858788;29;20040;-82
2022/11/08 02:16:25;;;;;;;8.00;1.80;;;12.20;99.90;;;;;;4846048;29;20037;-80
2022/11/08 02:18:51;;;;;;;14.65;2.72;;;12.20;99.90;;;;;;4860052;29;20096;-81
2022/11/08 02:21:33;;;;;;;8.82;1.63;;;12.70;99.90;;;;;;4851994;29;20045;-81
2022/11/08 02:24:01;;;;;;;7.05;1.80;;;12.10;99.90;;;;;;4860903;29;20083;-81
2022/11/08 02:26:30;;;;;;;9.07;1.90;;;12.10;99.90;;;;;;4848316;29;20100;-80
2022/11/08 02:29:16;;;;;;;10.55;2.30;;;12.10;99.90;;;;;;4845049;29;20044;-81
2022/11/08 02:31:42;;;;;;;10.38;2.17;;;12.00;99.90;;;;;;4844800;29;20045;-80
2022/11/08 02:34:07;;;;;;;9.27;2.28;;;12.00;99.90;;;;;;4847073;29;20457;-81
2022/11/08 02:36:33;;;;;;;10.20;2.33;;;12.00;99.90;;;;;;4862742;29;20045;-80
2022/11/08 02:38:58;;;;;;;8.90;2.08;;;11.90;99.90;;;;;;4851441;29;20041;-81
2022/11/08 02:41:24;;;;;;;10.38;2.20;;;11.90;99.90;;;;;;4860637;29;20060;-81
2022/11/08 02:43:49;;;;;;;9.43;1.90;;;12.00;99.90;;;;;;4850780;29;20041;-79
2022/11/08 02:46:15;;;;;;;9.35;1.83;;;11.80;99.90;;;;;;4850845;29;20044;-80
2022/11/08 02:48:41;;;;;;;10.13;2.00;;;11.90;99.90;;;;;;4836711;29;20094;-80
2022/11/08 02:51:06;;;;;;;11.43;2.50;;;11.90;99.90;;;;;;4846694;29;20045;-80
2022/11/08 02:53:32;;;;;;;8.77;1.70;;;11.80;99.90;;;;;;4878984;29;20515;-81
2022/11/08 02:55:59;;;;;;;9.10;2.17;;;11.80;99.90;;;;;;4849651;29;20424;-81
2022/11/08 02:58:26;;;;;;;12.82;1.75;;;11.80;99.90;;;;;;4847480;29;20051;-80
2022/11/08 03:00:52;;;;;;;11.70;1.73;;;11.80;99.90;;;;;;4847959;29;20094;-80
2022/11/08 03:03:18;;;;;;;9.98;1.83;;;11.80;99.90;;;;;;4862525;29;20045;-80
2022/11/08 03:05:46;;;;;;;8.85;1.75;;;11.70;99.90;;;;;;4844741;29;20051;-81
2022/11/08 03:08:12;;;;;;;14.35;3.00;;;11.70;99.90;;;;;;4859471;29;20616;-81
2022/11/08 03:10:38;;;;;;;9.05;1.77;;;11.70;99.90;;;;;;4847043;29;20108;-81
2022/11/08 03:13:05;;;;;;;6.20;2.08;;;11.70;99.90;;;;;;4859825;29;20124;-80
2022/11/08 03:15:31;;;;;;;11.20;2.38;;;11.70;99.90;;;;;;4848220;29;20069;-80
2022/11/08 03:17:58;;;;;;;8.07;1.80;;;11.70;99.90;;;;;;4857971;29;20065;-80
2022/11/08 03:20:24;;;;;;;8.35;1.85;;;11.70;99.90;;;;;;4859622;29;20109;-81
2022/11/08 03:23:00;;;;;;;10.05;2.38;;;11.60;99.90;;;;;;4860070;29;20041;-81
2022/11/08 03:25:26;;;;;;;;;;;11.60;99.90;;;;;;4863645;29;20041;-80
2022/11/08 03:27:52;;;;;;;11.13;1.80;;;11.60;99.90;;;;;;4856502;29;19988;-80
2022/11/08 03:30:17;;;;;;;10.68;2.10;;;11.60;99.90;;;;;;4858555;29;20065;-80
2022/11/08 03:32:45;;;;;;;12.60;1.95;;;11.60;99.90;;;;;;4859295;29;20084;-80
2022/11/08 03:35:11;;;;;;;8.15;2.28;;;11.60;99.90;;;;;;4857934;29;20137;-81
2022/11/08 03:37:37;;;;;;;7.15;2.33;;;11.60;99.90;;;;;;4842284;29;20124;-80
2022/11/08 03:40:03;;;;;;;12.82;1.95;;;11.60;99.90;;;;;;4857783;29;20073;-80
2022/11/08 03:42:30;;;;;;;13.63;2.65;;;11.50;99.90;;;;;;4847656;29;20115;-80
2022/11/08 03:44:56;;;;;;;8.02;1.95;;;11.50;99.90;;;;;;4855323;29;20076;-80
2022/11/08 03:47:21;;;;;;;10.07;1.70;;;11.60;99.90;;;;;;4855439;29;20077;-80
2022/11/08 03:49:47;;;;;;;8.65;1.63;;;11.50;99.90;;;;;;4853477;29;20041;-80
2022/11/08 03:52:16;;;;;;;7.53;2.28;;;11.50;99.90;;;;;;4855567;29;20085;-80
2022/11/08 03:54:41;;;;;;;13.57;2.00;;;11.50;99.90;;;;;;4856367;29;20064;-80
2022/11/08 03:57:07;;;;;;;9.23;1.65;;;11.50;99.90;;;;;;4841218;29;20044;-80
2022/11/08 03:59:32;;;;;;;9.50;2.00;;;11.50;99.90;;;;;;4855951;29;20393;-80
2022/11/08 04:01:58;;;;;;;8.43;1.60;;;11.40;99.90;;;;;;4871398;29;20059;-80
2022/11/08 04:04:23;;;;;;;13.68;3.08;;;11.40;99.90;;;;;;4853994;29;20044;-80
2022/11/08 04:06:49;;;;;;;11.70;2.45;;;11.30;99.90;;;;;;4835122;29;20044;-80
2022/11/08 04:09:14;;;;;;;12.25;2.25;;;11.40;99.90;;;;;;4856070;29;20045;-80
2022/11/08 04:17:08;;;;;;;9.77;1.85;;;11.30;99.90;;;;;;4872099;29;20528;-82
2022/11/08 04:22:24;;;;;;;7.22;1.88;;;11.40;99.90;;;;;;4853836;29;20080;-79
2022/11/08 04:24:49;;;;;;;7.97;1.42;;;11.40;99.90;;;;;;4841746;29;20073;-80
2022/11/08 04:27:15;;;;;;;10.07;1.75;;;11.90;99.90;;;;;;4854027;29;20107;-81
2022/11/08 04:29:40;;;;;;;8.32;1.42;;;11.30;99.90;;;;;;4842659;29;20041;-81
2022/11/08 04:32:06;;;;;;;7.22;1.58;;;11.30;99.90;;;;;;4840442;29;20041;-81
2022/11/08 04:34:31;;;;;;;12.73;2.40;;;11.70;99.90;;;;;;4844317;29;20048;-81
2022/11/08 04:36:57;;;;;;;7.45;1.58;;;11.40;99.90;;;;;;4840726;29;20065;-81
2022/11/08 04:39:25;;;;;;;6.53;1.67;;;11.40;99.90;;;;;;4843231;29;20065;-82
2022/11/08 04:41:51;;;;;;;7.40;2.10;;;11.40;99.90;;;;;;4855591;29;20123;-79
2022/11/08 04:44:17;;;;;;;9.70;2.58;;;11.40;99.90;;;;;;4854912;29;20196;-81
2022/11/08 04:46:42;;;;;;;11.00;1.92;;;11.40;99.90;;;;;;4846900;29;20055;-81
2022/11/08 04:49:08;;;;;;;8.90;1.73;;;11.40;99.90;;;;;;4838979;29;20045;-80
2022/11/08 04:51:33;;;;;;;11.73;1.77;;;11.40;99.90;;;;;;4848594;29;20120;-79
2022/11/08 04:54:01;;;;;;;6.43;1.23;;;11.40;99.90;;;;;;4850350;29;20092;-79
2022/11/08 04:56:28;;;;;;;9.63;1.58;;;11.40;99.90;;;;;;4849566;29;20040;-78
2022/11/08 04:58:56;;;;;;;9.50;2.10;;;11.40;99.90;;;;;;4853403;29;20049;-81
2022/11/08 05:01:24;;;;;;;7.47;1.58;;;11.40;99.90;;;;;;4850699;29;20093;-81
2022/11/08 05:03:51;;;;;;;7.68;1.52;;;11.40;99.90;;;;;;4860480;29;20044;-79
2022/11/08 05:06:25;;;;;;;9.85;1.77;;;11.40;99.90;;;;;;4849439;29;20046;-79
2022/11/08 05:08:53;;;;;;;12.77;2.58;;;11.40;99.90;;;;;;4849799;29;20053;-79
2022/11/08 05:11:20;;;;;;;5.93;1.70;;;11.40;99.90;;;;;;4846245;29;20037;-79
2022/11/08 05:13:47;;;;;;;7.03;1.50;;;11.40;99.90;;;;;;4849232;29;20044;-79
2022/11/08 05:16:21;;;;;;;9.00;1.77;;;11.40;99.90;;;;;;4848019;29;20072;-81
2022/11/08 05:18:47;;;;;;;8.38;1.33;;;11.40;99.90;;;;;;4863769;29;20088;-80
2022/11/08 05:24:01;;;;;;;7.47;2.05;;;11.40;99.90;;;;;;4850662;29;20092;-82
2022/11/08 05:26:57;;;;;;;4.03;1.13;;;11.50;99.90;;;;;;4857514;29;20545;-82
2022/11/08 05:29:22;;;;;;;10.57;1.77;;;11.40;99.90;;;;;;4837418;29;20037;-82
2022/11/08 05:31:48;;;;;;;4.85;1.35;;;11.40;99.90;;;;;;4844539;29;20109;-80
2022/11/08 05:34:14;;;;;;;9.82;2.67;;;11.40;99.90;;;;;;4835257;29;20041;-80
2022/11/08 05:36:39;;;;;;;4.65;1.15;;;11.30;99.90;;;;;;4852310;29;20033;-81
2022/11/08 05:39:05;;;;;;;9.55;1.30;;;11.30;99.90;;;;;;4851178;29;20037;-79
2022/11/08 05:41:30;;;;;;;7.10;1.20;;;11.30;99.90;;;;;;4853220;29;20045;-82
2022/11/08 05:43:56;;;;;;;9.75;1.77;;;11.30;99.90;;;;;;4855727;29;20041;-79
2022/11/08 05:46:25;;;;;;;7.45;1.45;;;11.40;99.90;;;;;;4849212;29;20052;-85
2022/11/08 05:48:51;;;;;;;6.47;2.10;;;11.50;99.90;;;;;;4848033;29;20104;-78
2022/11/08 05:51:20;;;;;;;7.32;1.75;;;11.40;99.90;;;;;;4836882;29;20040;-79
2022/11/08 05:53:47;;;;;;;6.53;1.42;;;11.40;99.90;;;;;;4849595;29;20455;-79
2022/11/08 05:56:13;;;;;;;11.18;1.95;;;11.30;99.90;;;;;;4848890;29;20098;-79
2022/11/08 05:58:38;;;;;;;7.70;1.30;;;11.30;99.90;;;;;;4867613;29;20045;-82
2022/11/08 06:01:07;;;;;;;7.10;1.83;;;11.30;99.90;;;;;;4834884;29;20037;-80
2022/11/08 06:03:33;;;;;;;7.55;1.50;;;11.30;99.90;;;;;;4837111;29;20160;-81
2022/11/08 06:06:10;;;;;;;6.30;1.40;;;11.30;99.90;;;;;;4840942;29;20563;-80
2022/11/08 06:08:36;;;;;;;5.28;1.70;;;11.30;99.90;;;;;;4840036;29;20045;-81
2022/11/08 06:11:12;;;;;;;7.05;1.58;;;11.30;99.90;;;;;;4847268;29;20052;-82
2022/11/08 06:13:41;;;;;;;9.13;2.10;;;11.10;99.90;;;;;;4848705;29;20408;-82
2022/11/08 06:16:10;;;;;;;5.60;1.17;;;11.40;99.90;;;;;;4846603;29;20060;-82
2022/11/08 06:19:02;;;;;;;;;;;;;;;;;;;;;
2022/11/08 06:21:28;;;;;;;7.13;1.40;;;11.20;99.90;;;;;;4856541;29;20089;-82
2022/11/08 06:27:32;;;;;;;;;;;11.20;99.90;;;;;;4820357;29;20193;-79
2022/11/08 06:29:57;;;;;;;5.43;1.20;;;11.40;99.90;;;;;;4853363;29;19991;-80
2022/11/08 06:32:23;;;;;;;7.63;1.55;;;11.10;99.90;;;;;;4836169;29;20404;-79
2022/11/08 06:34:50;;;;;;;4.78;1.42;;;11.10;99.90;;;;;;4857131;29;20272;-85
2022/11/08 06:37:19;;;;;;;5.75;1.88;;;11.10;99.90;;;;;;4857676;29;20045;-81
2022/11/08 06:39:57;;;;;;;6.60;1.88;;;11.10;99.90;;;;;;4855304;29;20056;-82
2022/11/08 06:42:26;;;;;;;5.78;1.50;;;11.10;99.90;;;;;;4842437;29;20136;-83
2022/11/08 06:44:52;;;;;;;6.57;2.30;;;11.20;99.90;;;;;;4872486;29;20104;-83
2022/11/08 06:47:21;;;;;;;6.95;1.52;;;11.20;99.90;;;;;;4842353;29;20185;-83
2022/11/08 06:49:50;;;;;;;6.40;1.95;;;11.00;99.90;;;;;;4843219;29;20045;-83
2022/11/08 06:52:15;;;;;;;9.52;1.98;;;11.10;99.90;;;;;;4872407;29;20052;-81
2022/11/08 06:54:41;;;;;;;5.43;1.92;;;11.10;99.90;;;;;;4838717;29;20042;-78
2022/11/08 06:57:06;;;;;;;9.30;1.90;;;11.20;99.90;;;;;;4844590;29;20052;-80
2022/11/08 06:59:32;;;;;;;8.82;2.10;;;11.20;99.90;;;;;;4846268;29;20143;-79
2022/11/08 07:01:57;;;;;;;8.88;3.03;;;11.20;99.90;;;;;;4845938;29;20432;-80
2022/11/08 07:04:23;;;;;;;7.22;1.58;;;11.20;99.90;;;;;;4847969;29;20052;-79
2022/11/08 07:06:48;;;;;;;6.00;2.03;;;11.20;99.90;;;;;;4846214;29;20063;-81
2022/11/08 07:09:14;;;;;;;6.25;1.55;;;11.30;99.90;;;;;;4844884;29;20033;-79
2022/11/08 07:11:40;;;;;;;6.75;1.90;;;11.30;99.90;;;;;;4846802;29;20067;-79
2022/11/08 07:14:05;;;;;;;9.82;2.00;;;11.30;99.90;;;;;;4833268;29;20129;-79
2022/11/08 07:16:31;;;;;;;6.13;2.22;;;11.30;99.90;;;;;;4832647;29;20049;-80
2022/11/08 07:18:57;;;;;;;7.85;1.58;;;11.30;99.90;;;;;;4826754;29;20215;-81
2022/11/08 07:22:17;;;;;;;6.32;2.13;;;11.40;99.90;;;;;;4817213;29;20052;-82
2022/11/08 07:25:19;;;;;;;8.60;1.55;;;11.30;99.90;;;;;;4852200;29;20078;-82
2022/11/08 07:32:05;;;;;;;6.18;1.42;;;10.90;99.90;;;;;;4844739;29;20639;-82
2022/11/08 07:34:51;;;;;;;5.90;1.95;;;11.40;99.90;;;;;;4828792;29;20636;-83
2022/11/08 07:37:20;;;;;;;7.95;1.33;;;11.40;99.90;;;;;;4866871;29;20117;-82
2022/11/08 07:47:32;;;;;;;7.60;1.55;;;11.50;99.90;;;;;;4863394;29;20140;-82
2022/11/08 07:49:58;;;;;;;11.65;1.65;;;11.50;99.90;;;;;;4834812;29;20051;-82
2022/11/08 07:56:05;;;;;;;5.00;1.50;;;11.50;99.90;;;;;;4867728;29;20072;-82
2022/11/08 07:58:33;;;;;;;8.38;2.25;;;11.60;99.90;;;;;;4854303;29;20048;-83
2022/11/08 08:01:05;;;;;;;6.70;1.65;;;12.10;99.90;;;;;;4854058;29;20045;-82
2022/11/08 08:03:31;;;;;;;5.13;1.17;;;11.80;99.90;;;;;;4839023;29;20068;-82
2022/11/08 08:05:57;;;;;;;3.97;1.20;;;11.80;99.90;;;;;;4837539;29;20132;-83
2022/11/08 08:08:23;;;;;;;5.30;1.88;;;11.30;99.90;;;;;;4855911;29;20049;-83
2022/11/08 08:10:48;;;;;;;5.03;1.38;;;11.80;99.90;;;;;;4854196;29;20045;-82
2022/11/08 08:13:14;;;;;;;6.90;1.77;;;12.00;99.90;;;;;;4841930;29;20104;-81
2022/11/08 08:15:43;;;;;;;6.43;1.60;;;12.00;99.90;;;;;;4876723;29;20775;-82
2022/11/08 08:18:10;;;;;;;3.95;1.60;;;12.00;99.90;;;;;;4845251;29;20062;-82
2022/11/08 08:20:36;;;;;;;4.43;1.35;;;12.00;99.90;;;;;;4876815;29;20170;-82
2022/11/08 08:23:01;;;;;;;7.18;1.50;;;12.10;99.90;;;;;;4856787;29;20041;-81
2022/11/08 08:25:29;;;;;;;5.65;1.02;;;12.10;99.90;;;;;;4838420;29;20055;-82
2022/11/08 08:28:01;;;;;;;8.23;1.50;;;12.10;99.90;;;;;;4839258;29;20045;-81
2022/11/08 08:30:29;;;;;;;6.80;1.50;;;12.20;99.90;;;;;;4852595;29;20654;-84
2022/11/08 08:33:05;;;;;;;4.03;1.50;;;12.20;99.90;;;;;;4854120;29;20041;-81
2022/11/08 08:35:35;;;;;;;3.58;1.13;;;12.30;99.90;;;;;;4839179;29;20049;-81
2022/11/08 08:38:02;;;;;;;4.15;1.23;;;12.30;99.90;;;;;;4855074;29;20055;-82
2022/11/08 08:40:34;;;;;;;4.20;1.13;;;12.40;99.90;;;;;;4837860;29;20519;-83
2022/11/08 08:43:02;;;;;;;2.67;1.35;;;12.40;99.90;;;;;;4839272;29;20057;-82
2022/11/08 08:45:28;;;;;;;5.55;1.00;;;12.50;99.90;;;;;;4852123;29;20048;-81
2022/11/08 08:47:55;;;;;;;5.22;1.38;;;12.50;99.90;;;;;;4835814;29;20048;-82
2022/11/08 08:50:21;;;;;;;9.32;2.00;;;12.50;99.90;;;;;;4833953;29;20396;-81
2022/11/08 08:52:47;;;;;;;4.20;1.00;;;12.60;99.90;;;;;;4855837;29;20481;-82
2022/11/08 08:55:13;;;;;;;2.42;1.13;;;12.60;99.90;;;;;;4837653;29;20065;-82
2022/11/08 08:57:46;;;;;;;5.03;1.40;;;12.70;99.90;;;;;;4837752;29;20041;-82
2022/11/08 09:00:13;;;;;;;6.57;1.05;;;12.80;99.90;;;;;;4851063;29;20784;-83
2022/11/08 09:02:39;;;;;;;5.43;0.98;;;12.90;99.90;;;;;;4837335;29;20100;-83
2022/11/08 09:05:08;;;;;;;4.80;1.20;;;12.90;99.90;;;;;;4833207;29;20444;-80
2022/11/08 09:07:34;;;;;;;3.88;1.17;;;13.00;99.90;;;;;;4867325;29;20060;-81
2022/11/08 09:10:00;;;;;;;6.05;1.23;;;13.00;99.90;;;;;;4865153;29;20041;-83
2022/11/08 09:12:26;;;;;;;4.97;1.60;;;13.10;99.90;;;;;;4854052;29;20049;-80
2022/11/08 09:14:52;;;;;;;6.78;1.52;;;13.10;99.90;;;;;;4836181;29;20127;-82
2022/11/08 09:17:17;;;;;;;3.03;1.10;;;13.20;99.90;;;;;;4838256;29;20157;-83
2022/11/08 09:19:46;;;;;;;5.97;1.20;;;13.20;99.90;;;;;;4850752;29;20041;-82
2022/11/08 09:22:15;;;;;;;4.90;1.20;;;13.30;99.90;;;;;;4854191;29;20077;-82
2022/11/08 09:24:40;;;;;;;4.35;1.10;;;13.30;99.90;;;;;;4857871;29;20295;-81
2022/11/08 09:27:06;;;;;;;6.28;1.55;;;13.40;99.90;;;;;;4855042;29;20069;-79
2022/11/08 09:29:32;;;;;;;5.38;1.33;;;13.40;99.90;;;;;;4850188;29;20626;-81
2022/11/08 09:31:59;;;;;;;6.35;1.23;;;13.50;99.90;;;;;;4845860;29;20399;-79
2022/11/08 09:34:25;;;;;;;3.80;1.58;;;13.50;99.90;;;;;;4830784;29;20404;-79
2022/11/08 09:36:51;;;;;;;4.68;0.98;;;13.50;99.90;;;;;;4842726;29;20132;-80
2022/11/08 09:39:16;;;;;;;3.38;1.10;;;13.50;99.90;;;;;;4821472;29;20132;-79
2022/11/08 09:42:04;;;;;;;5.05;1.30;;;13.60;99.90;;;;;;4845156;29;20053;-79
2022/11/08 09:44:29;;;;;;;4.32;0.90;;;13.60;99.90;;;;;;4846257;29;20047;-79
2022/11/08 09:46:57;;;;;;;4.63;1.30;;;13.60;99.90;;;;;;4844678;29;20068;-81
2022/11/08 09:49:34;;;;;;;3.47;0.90;;;13.60;99.90;;;;;;4844056;29;20049;-81
2022/11/08 09:52:03;;;;;;;5.53;1.23;;;13.70;99.90;;;;;;4841113;29;20075;-80
2022/11/08 09:54:41;;;;;;;4.43;1.08;;;13.70;99.90;;;;;;4858503;29;20057;-80
2022/11/08 09:57:20;;;;;;;2.95;0.90;;;13.70;99.90;;;;;;4844434;29;20404;-78
2022/11/08 09:59:51;;;;;;;5.95;1.05;;;13.70;99.90;;;;;;4857754;29;20053;-81
2022/11/08 10:02:20;;;;;;;2.38;0.98;;;13.80;99.90;;;;;;4843899;29;20099;-79
2022/11/08 10:04:57;;;;;;;5.63;0.90;;;13.80;99.90;;;;;;4841900;29;20089;-79
2022/11/08 10:07:40;;;;;;;2.47;0.88;;;13.80;99.90;;;;;;4844645;29;20084;-79
2022/11/08 10:10:33;;;;;;;7.88;0.80;;;13.80;99.90;;;;;;4843268;29;20075;-79
2022/11/08 10:13:17;;;;;;;4.50;1.17;;;13.90;99.90;;;;;;4859887;29;21059;-82
2022/11/08 10:16:11;;;;;;;3.67;0.93;;;13.90;99.90;;;;;;4842194;29;20065;-79
2022/11/08 10:18:49;;;;;;;1.63;0.80;;;13.90;99.90;;;;;;4813603;29;20496;-80
2022/11/08 10:21:47;;;;;;;6.72;1.45;;;13.90;99.90;;;;;;4842860;29;20060;-79
2022/11/08 10:24:35;;;;;;;2.58;0.82;;;14.00;99.90;;;;;;4829705;29;20117;-80
2022/11/08 10:27:08;;;;;;;2.85;1.20;;;14.00;99.90;;;;;;4829968;29;20068;-79
2022/11/08 10:29:40;;;;;;;4.60;0.93;;;14.00;99.90;;;;;;4845158;29;20511;-79
2022/11/08 10:32:22;;;;;;;3.60;1.25;;;14.10;99.90;;;;;;4861575;29;20037;-79
2022/11/08 10:34:57;;;;;;;3.63;0.88;;;14.10;99.90;;;;;;4829428;29;20077;-79
2022/11/08 10:37:24;;;;;;;3.38;1.05;;;14.10;99.90;;;;;;4857687;29;20044;-79
2022/11/08 10:39:59;;;;;;;8.40;1.58;;;14.10;99.90;;;;;;4832885;29;20255;-79
2022/11/08 10:42:44;;;;;;;3.47;0.73;;;14.20;99.90;;;;;;4850750;29;20132;-80
2022/11/08 10:45:11;;;;;;;3.95;1.05;;;14.00;99.90;;;;;;4834127;29;20445;-80
2022/11/08 10:47:38;;;;;;;6.47;1.08;;;14.00;99.90;;;;;;4849176;29;20081;-79
2022/11/08 10:50:36;;;;;;;3.20;1.05;;;13.90;99.90;;;;;;4845350;29;20520;-79
2022/11/08 10:53:03;;;;;;;6.63;1.35;;;13.90;99.90;;;;;;4847719;29;20057;-82
2022/11/08 10:55:37;;;;;;;2.05;1.08;;;13.80;99.90;;;;;;4860882;29;20089;-80
2022/11/08 10:58:03;;;;;;;3.03;1.02;;;13.70;99.90;;;;;;4846075;29;20041;-81
2022/11/08 11:00:31;;;;;;;2.33;0.75;;;13.70;99.90;;;;;;4848115;29;20048;-80
2022/11/08 11:03:08;;;;;;;7.10;1.00;;;13.70;99.90;;;;;;4828117;29;20052;-79
2022/11/08 11:05:41;;;;;;;5.13;0.80;;;13.70;99.90;;;;;;4847953;29;20049;-79
2022/11/08 11:08:06;;;;;;;16.88;2.90;;;13.70;99.90;;;;;;4846916;29;20052;-79
2022/11/08 11:10:36;;;;;;;2.90;0.70;;;13.70;99.90;;;;;;4848755;29;20045;-79
2022/11/08 11:13:18;;;;;;;3.95;0.82;;;13.70;99.90;;;;;;4847224;29;20045;-79
2022/11/08 11:15:50;;;;;;;4.50;0.80;;;13.80;99.90;;;;;;4847986;29;20048;-79
2022/11/08 11:18:22;;;;;;;2.90;0.90;;;13.90;99.90;;;;;;4845158;29;20056;-80
2022/11/08 11:21:11;;;;;;;4.55;1.10;;;13.90;99.90;;;;;;4863464;29;20693;-79
2022/11/08 11:23:42;;;;;;;2.78;0.90;;;14.10;99.90;;;;;;4858431;29;20073;-78
2022/11/08 11:26:18;;;;;;;2.47;0.70;;;14.10;99.90;;;;;;4842736;29;20140;-79
2022/11/08 11:29:02;;;;;;;2.70;0.77;;;14.20;99.90;;;;;;4847635;29;20132;-80
2022/11/08 11:31:32;;;;;;;5.25;0.90;;;14.20;99.90;;;;;;4859241;29;20043;-79
2022/11/08 11:34:11;;;;;;;7.00;1.30;;;14.30;99.90;;;;;;4849072;29;20066;-80
2022/11/08 11:36:38;;;;;;;6.18;1.23;;;14.30;99.90;;;;;;4853747;29;20083;-82
2022/11/08 11:39:13;;;;;;;10.20;1.17;;;14.30;99.90;;;;;;4844165;29;20140;-82
2022/11/08 11:42:15;;;;;;;1.75;0.50;;;14.30;99.90;;;;;;4847646;29;20049;-83
2022/11/08 11:45:10;;;;;;;2.08;0.85;;;14.30;99.90;;;;;;4845393;29;20452;-81
2022/11/08 11:47:52;;;;;;;4.38;0.93;;;14.40;99.90;;;;;;4841067;29;20053;-81
2022/11/08 11:50:35;;;;;;;7.38;1.10;;;14.30;99.90;;;;;;4840092;29;20044;-81
2022/11/08 11:53:37;;;;;;;5.82;1.10;;;14.30;99.90;;;;;;4857175;29;20592;-82
2022/11/08 11:56:40;;;;;;;2.33;1.00;;;14.40;99.90;;;;;;4868438;29;20064;-81
2022/11/08 11:59:14;;;;;;;15.73;1.88;;;14.40;99.90;;;;;;4846614;29;21631;-79
2022/11/08 12:02:08;;;;;;;6.70;1.20;;;14.20;99.90;;;;;;4846763;29;20063;-78
2022/11/08 12:05:03;;;;;;;3.33;0.90;;;14.40;99.90;;;;;;4845387;29;20045;-80
2022/11/08 12:07:31;;;;;;;1.85;0.88;;;14.50;99.90;;;;;;4814280;29;20149;-81
2022/11/08 12:10:12;;;;;;;3.25;1.02;;;14.50;99.90;;;;;;4848878;29;20049;-79
2022/11/08 12:13:11;;;;;;;4.03;1.30;;;14.60;99.90;;;;;;4843533;29;20468;-81
2022/11/08 12:15:42;;;;;;;3.30;1.08;;;14.60;99.90;;;;;;4830591;29;20155;-78
2022/11/08 12:18:24;;;;;;;3.63;0.90;;;14.70;99.90;;;;;;4844924;29;20044;-79
2022/11/08 12:21:18;;;;;;;2.80;1.00;;;14.70;99.90;;;;;;4846546;29;20113;-80
2022/11/08 12:24:14;;;;;;;11.93;1.42;;;14.60;99.90;;;;;;4850721;29;20107;-80
2022/11/08 12:26:55;;;;;;;6.60;1.10;;;14.60;99.90;;;;;;4844644;29;20508;-80
2022/11/08 12:30:07;;;;;;;6.47;1.83;;;14.50;99.90;;;;;;4841615;29;20107;-81
2022/11/08 12:33:04;;;;;;;6.40;1.17;;;14.50;99.90;;;;;;4846534;29;20129;-80
2022/11/08 12:35:37;;;;;;;6.10;1.02;;;14.50;99.90;;;;;;4844962;29;20054;-79
2022/11/08 12:38:35;;;;;;;5.35;1.00;;;14.50;99.90;;;;;;4845567;29;20053;-79
2022/11/08 12:41:28;;;;;;;4.88;0.98;;;14.40;99.90;;;;;;4841843;29;20056;-79
2022/11/08 12:44:11;;;;;;;1.90;1.10;;;14.40;99.90;;;;;;4845134;29;20511;-79
2022/11/08 12:46:49;;;;;;;4.97;0.90;;;14.40;99.90;;;;;;4858972;29;20040;-79
2022/11/08 12:49:52;;;;;;;2.65;0.98;;;14.40;99.90;;;;;;4844143;29;20041;-79
2022/11/08 12:52:30;;;;;;;21.60;1.80;;;14.40;99.90;;;;;;4826072;29;20041;-79
2022/11/08 12:55:01;;;;;;;5.80;1.27;;;14.40;99.90;;;;;;4860644;29;20105;-80
2022/11/08 12:57:29;;;;;;;4.90;0.93;;;14.40;99.90;;;;;;4825797;29;20390;-79
2022/11/08 13:00:12;;;;;;;4.03;1.17;;;14.50;99.90;;;;;;4844526;29;20063;-79
2022/11/08 13:02:39;;;;;;;6.10;1.02;;;14.50;99.90;;;;;;4846410;29;20048;-78
2022/11/08 13:05:17;;;;;;;7.07;1.23;;;14.50;99.90;;;;;;4845383;29;20914;-78
2022/11/08 13:07:53;;;;;;;3.85;1.10;;;14.50;99.90;;;;;;4843358;29;20077;-81
2022/11/08 13:10:42;;;;;;;3.30;1.20;;;14.50;99.90;;;;;;4846014;29;20049;-79
2022/11/08 13:13:47;;;;;;;5.32;0.95;;;14.50;99.90;;;;;;4844516;29;20037;-79
2022/11/08 13:16:23;;;;;;;3.10;0.82;;;14.60;99.90;;;;;;4845556;29;20049;-79
2022/11/08 13:18:54;;;;;;;4.47;1.08;;;14.50;99.90;;;;;;4845310;29;20065;-79
2022/11/08 13:21:29;;;;;;;10.05;1.08;;;14.60;99.90;;;;;;4857284;29;20220;-79
2022/11/08 13:24:10;;;;;;;6.20;0.85;;;14.50;99.90;;;;;;4826727;29;20485;-78
2022/11/08 13:26:42;;;;;;;5.40;0.95;;;14.60;99.90;;;;;;4860911;29;20109;-80
2022/11/08 13:29:17;;;;;;;2.95;0.80;;;14.60;99.90;;;;;;4830496;29;20049;-79
2022/11/08 13:31:55;;;;;;;2.67;0.70;;;14.50;99.90;;;;;;4845797;29;20191;-79
2022/11/08 13:34:53;;;;;;;4.80;1.30;;;14.50;99.90;;;;;;4859828;29;20493;-79
2022/11/08 13:37:40;;;;;;;4.55;0.85;;;14.50;99.90;;;;;;4827554;29;20042;-79
2022/11/08 13:40:28;;;;;;;2.88;1.20;;;14.60;99.90;;;;;;4828527;29;20547;-79
2022/11/08 13:42:58;;;;;;;8.98;1.35;;;14.50;99.90;;;;;;4845063;29;20053;-79
2022/11/08 13:45:33;;;;;;;2.45;0.73;;;14.50;99.90;;;;;;4830475;29;20088;-78
2022/11/08 13:48:23;;;;;;;4.63;0.90;;;14.50;99.90;;;;;;4842940;29;20135;-78